sensor_id;sensor_type;location;lat;lon;timestamp;temperature;humidity
36132;DHT22;22185;48.738;9.324;2023-05-10T00:00:39;14.50;99.90
36132;DHT22;22185;48.738;9.324;2023-05-10T00:02:41;14.40;99.90
36132;DHT22;22185;48.738;9.324;2023-05-10T00:04:42;14.40;99.90
36132;DHT22;22185;48.738;9.324;2023-05-10T00:06:44;14.30;99.90
36132;DHT22;22185;48.738;9.324;2023-05-10T00:08:46;14.30;99.90
36132;DHT22;22185;48.738;9.324;2023-05-10T00:10:48;14.40;99.90
36132;DHT22;22185;48.738;9.324;2023-05-10T00:12:50;14.40;99.90
36132;DHT22;22185;48.738;9.324;2023-05-10T00:14:51;14.40;99.90
36132;DHT22;22185;48.738;9.324;2023-05-10T00:16:53;14.40;99.90
36132;DHT22;22185;48.738;9.324;2023-05-10T00:18:55;14.40;99.90
36132;DHT22;22185;48.738;9.324;2023-05-10T00:20:56;14.40;99.90
36132;DHT22;22185;48.738;9.324;2023-05-10T00:22:58;14.50;99.90
36132;DHT22;22185;48.738;9.324;2023-05-10T00:25:00;14.50;99.90
36132;DHT22;22185;48.738;9.324;2023-05-10T00:27:02;14.50;99.90
36132;DHT22;22185;48.738;9.324;2023-05-10T00:29:05;14.50;99.90
36132;DHT22;22185;48.738;9.324;2023-05-10T00:31:06;14.30;99.90
36132;DHT22;22185;48.738;9.324;2023-05-10T00:33:08;14.40;99.90
36132;DHT22;22185;48.738;9.324;2023-05-10T00:35:10;14.40;99.90
36132;DHT22;22185;48.738;9.324;2023-05-10T00:37:12;14.30;99.90
36132;DHT22;22185;48.738;9.324;2023-05-10T00:39:14;14.30;99.90
36132;DHT22;22185;48.738;9.324;2023-05-10T00:41:15;14.30;99.90
36132;DHT22;22185;48.738;9.324;2023-05-10T00:43:18;14.30;99.90
36132;DHT22;22185;48.738;9.324;2023-05-10T00:45:19;14.10;99.90
36132;DHT22;22185;48.738;9.324;2023-05-10T00:47:21;14.20;99.90
36132;DHT22;22185;48.738;9.324;2023-05-10T00:49:23;14.20;99.90
36132;DHT22;22185;48.738;9.324;2023-05-10T00:51:25;14.20;99.90
36132;DHT22;22185;48.738;9.324;2023-05-10T00:53:27;14.10;99.90
36132;DHT22;22185;48.738;9.324;2023-05-10T00:55:29;14.10;99.90
36132;DHT22;22185;48.738;9.324;2023-05-10T00:57:31;14.00;99.90
36132;DHT22;22185;48.738;9.324;2023-05-10T00:59:33;14.00;99.90
36132;DHT22;22185;48.738;9.324;2023-05-10T01:01:35;13.90;99.90
36132;DHT22;22185;48.738;9.324;2023-05-10T01:03:37;13.90;99.90
36132;DHT22;22185;48.738;9.324;2023-05-10T01:05:39;13.90;99.90
36132;DHT22;22185;48.738;9.324;2023-05-10T01:07:40;13.90;99.90
36132;DHT22;22185;48.738;9.324;2023-05-10T01:12:51;13.90;99.90
36132;DHT22;22185;48.738;9.324;2023-05-10T01:14:53;13.80;99.90
36132;DHT22;22185;48.738;9.324;2023-05-10T01:16:55;13.80;99.90
36132;DHT22;22185;48.738;9.324;2023-05-10T01:18:57;13.80;99.90
36132;DHT22;22185;48.738;9.324;2023-05-10T01:21:02;13.80;99.90
36132;DHT22;22185;48.738;9.324;2023-05-10T01:23:19;13.80;99.90
36132;DHT22;22185;48.738;9.324;2023-05-10T01:25:32;13.60;99.90
36132;DHT22;22185;48.738;9.324;2023-05-10T01:32:08;13.60;99.90
36132;DHT22;22185;48.738;9.324;2023-05-10T01:34:15;13.60;99.90
36132;DHT22;22185;48.738;9.324;2023-05-10T01:36:26;13.60;99.90
36132;DHT22;22185;48.738;9.324;2023-05-10T01:38:35;13.60;99.90
36132;DHT22;22185;48.738;9.324;2023-05-10T01:42:48;13.60;99.90
36132;DHT22;22185;48.738;9.324;2023-05-10T01:45:06;13.60;99.90
36132;DHT22;22185;48.738;9.324;2023-05-10T01:47:14;13.40;99.90
36132;DHT22;22185;48.738;9.324;2023-05-10T01:49:20;13.50;99.90
36132;DHT22;22185;48.738;9.324;2023-05-10T01:51:23;13.60;99.90
36132;DHT22;22185;48.738;9.324;2023-05-10T01:53:25;13.50;99.90
36132;DHT22;22185;48.738;9.324;2023-05-10T01:55:28;13.50;99.90
36132;DHT22;22185;48.738;9.324;2023-05-10T01:57:34;13.50;99.90
36132;DHT22;22185;48.738;9.324;2023-05-10T01:59:36;13.50;99.90
36132;DHT22;22185;48.738;9.324;2023-05-10T02:01:42;13.40;99.90
36132;DHT22;22185;48.738;9.324;2023-05-10T02:03:44;13.40;99.90
36132;DHT22;22185;48.738;9.324;2023-05-10T02:05:48;13.30;99.90
36132;DHT22;22185;48.738;9.324;2023-05-10T02:07:50;13.30;99.90
36132;DHT22;22185;48.738;9.324;2023-05-10T02:09:52;13.30;99.90
36132;DHT22;22185;48.738;9.324;2023-05-10T02:11:54;13.30;99.90
36132;DHT22;22185;48.738;9.324;2023-05-10T02:13:57;13.20;99.90
36132;DHT22;22185;48.738;9.324;2023-05-10T02:15:59;13.20;99.90
36132;DHT22;22185;48.738;9.324;2023-05-10T02:18:03;13.20;99.90
36132;DHT22;22185;48.738;9.324;2023-05-10T02:20:05;13.20;99.90
36132;DHT22;22185;48.738;9.324;2023-05-10T02:22:08;13.10;99.90
36132;DHT22;22185;48.738;9.324;2023-05-10T02:24:10;13.10;99.90
36132;DHT22;22185;48.738;9.324;2023-05-10T02:26:12;13.10;99.90
36132;DHT22;22185;48.738;9.324;2023-05-10T02:28:15;13.10;99.90
36132;DHT22;22185;48.738;9.324;2023-05-10T02:30:18;13.10;99.90
36132;DHT22;22185;48.738;9.324;2023-05-10T02:32:21;13.00;99.90
36132;DHT22;22185;48.738;9.324;2023-05-10T02:34:23;13.00;99.90
36132;DHT22;22185;48.738;9.324;2023-05-10T02:36:26;13.00;99.90
36132;DHT22;22185;48.738;9.324;2023-05-10T02:38:29;13.00;99.90
36132;DHT22;22185;48.738;9.324;2023-05-10T02:40:32;13.00;99.90
36132;DHT22;22185;48.738;9.324;2023-05-10T02:42:35;13.00;99.90
36132;DHT22;22185;48.738;9.324;2023-05-10T02:44:37;13.00;99.90
36132;DHT22;22185;48.738;9.324;2023-05-10T02:46:40;13.00;99.90
36132;DHT22;22185;48.738;9.324;2023-05-10T02:48:42;12.90;99.90
36132;DHT22;22185;48.738;9.324;2023-05-10T02:50:44;12.90;99.90
36132;DHT22;22185;48.738;9.324;2023-05-10T02:52:46;12.90;99.90
36132;DHT22;22185;48.738;9.324;2023-05-10T02:54:50;12.90;99.90
36132;DHT22;22185;48.738;9.324;2023-05-10T02:56:54;12.90;99.90
36132;DHT22;22185;48.738;9.324;2023-05-10T02:58:58;13.00;99.90
36132;DHT22;22185;48.738;9.324;2023-05-10T03:00:59;13.00;99.90
36132;DHT22;22185;48.738;9.324;2023-05-10T03:03:03;13.00;99.90
36132;DHT22;22185;48.738;9.324;2023-05-10T03:05:05;13.00;99.90
36132;DHT22;22185;48.738;9.324;2023-05-10T03:07:07;13.00;99.90
36132;DHT22;22185;48.738;9.324;2023-05-10T03:09:09;13.00;99.90
36132;DHT22;22185;48.738;9.324;2023-05-10T03:13:36;13.00;99.90
36132;DHT22;22185;48.738;9.324;2023-05-10T03:16:02;13.00;99.90
36132;DHT22;22185;48.738;9.324;2023-05-10T03:18:12;13.00;99.90
36132;DHT22;22185;48.738;9.324;2023-05-10T03:20:35;13.00;99.90
36132;DHT22;22185;48.738;9.324;2023-05-10T03:22:40;13.00;99.90
36132;DHT22;22185;48.738;9.324;2023-05-10T03:24:44;13.00;99.90
36132;DHT22;22185;48.738;9.324;2023-05-10T03:26:47;13.00;99.90
36132;DHT22;22185;48.738;9.324;2023-05-10T03:28:50;13.00;99.90
36132;DHT22;22185;48.738;9.324;2023-05-10T03:30:52;13.00;99.90
36132;DHT22;22185;48.738;9.324;2023-05-10T03:32:54;13.00;99.90
36132;DHT22;22185;48.738;9.324;2023-05-10T03:34:56;13.10;99.90
36132;DHT22;22185;48.738;9.324;2023-05-10T03:36:58;13.00;99.90
36132;DHT22;22185;48.738;9.324;2023-05-10T03:39:00;13.00;99.90
36132;DHT22;22185;48.738;9.324;2023-05-10T03:41:02;13.10;99.90
36132;DHT22;22185;48.738;9.324;2023-05-10T03:43:03;13.10;99.90
36132;DHT22;22185;48.738;9.324;2023-05-10T03:45:05;13.10;99.90
36132;DHT22;22185;48.738;9.324;2023-05-10T03:47:07;13.10;99.90
36132;DHT22;22185;48.738;9.324;2023-05-10T03:49:09;13.10;99.90
36132;DHT22;22185;48.738;9.324;2023-05-10T03:51:11;13.10;99.90
36132;DHT22;22185;48.738;9.324;2023-05-10T03:53:13;13.10;99.90
36132;DHT22;22185;48.738;9.324;2023-05-10T03:55:14;13.00;99.90
36132;DHT22;22185;48.738;9.324;2023-05-10T03:57:16;13.10;99.90
36132;DHT22;22185;48.738;9.324;2023-05-10T03:59:18;13.10;99.90
36132;DHT22;22185;48.738;9.324;2023-05-10T04:01:19;13.20;99.90
36132;DHT22;22185;48.738;9.324;2023-05-10T04:03:21;13.10;99.90
36132;DHT22;22185;48.738;9.324;2023-05-10T04:05:23;13.10;99.90
36132;DHT22;22185;48.738;9.324;2023-05-10T04:07:25;13.10;99.90
36132;DHT22;22185;48.738;9.324;2023-05-10T04:09:26;13.10;99.90
36132;DHT22;22185;48.738;9.324;2023-05-10T04:11:28;13.20;99.90
36132;DHT22;22185;48.738;9.324;2023-05-10T04:13:30;13.20;99.90
36132;DHT22;22185;48.738;9.324;2023-05-10T04:15:31;13.20;99.90
36132;DHT22;22185;48.738;9.324;2023-05-10T04:17:33;13.20;99.90
36132;DHT22;22185;48.738;9.324;2023-05-10T04:19:35;13.20;99.90
36132;DHT22;22185;48.738;9.324;2023-05-10T04:21:37;13.20;99.90
36132;DHT22;22185;48.738;9.324;2023-05-10T04:23:38;13.20;99.90
36132;DHT22;22185;48.738;9.324;2023-05-10T04:25:40;13.20;99.90
36132;DHT22;22185;48.738;9.324;2023-05-10T04:27:42;13.20;99.90
36132;DHT22;22185;48.738;9.324;2023-05-10T04:29:43;13.30;99.90
36132;DHT22;22185;48.738;9.324;2023-05-10T04:31:45;13.20;99.90
36132;DHT22;22185;48.738;9.324;2023-05-10T04:33:47;13.20;99.90
36132;DHT22;22185;48.738;9.324;2023-05-10T04:35:48;13.20;99.90
36132;DHT22;22185;48.738;9.324;2023-05-10T04:37:50;13.30;99.90
36132;DHT22;22185;48.738;9.324;2023-05-10T04:39:52;13.30;99.90
36132;DHT22;22185;48.738;9.324;2023-05-10T04:41:53;13.30;99.90
36132;DHT22;22185;48.738;9.324;2023-05-10T04:43:55;13.30;99.90
36132;DHT22;22185;48.738;9.324;2023-05-10T04:45:57;13.30;99.90
36132;DHT22;22185;48.738;9.324;2023-05-10T04:47:58;13.30;99.90
36132;DHT22;22185;48.738;9.324;2023-05-10T04:50:00;13.30;99.90
36132;DHT22;22185;48.738;9.324;2023-05-10T04:52:02;13.30;99.90
36132;DHT22;22185;48.738;9.324;2023-05-10T04:54:04;13.40;99.90
36132;DHT22;22185;48.738;9.324;2023-05-10T04:56:07;13.40;99.90
36132;DHT22;22185;48.738;9.324;2023-05-10T04:58:09;13.40;99.90
36132;DHT22;22185;48.738;9.324;2023-05-10T05:00:11;13.40;99.90
36132;DHT22;22185;48.738;9.324;2023-05-10T05:02:12;13.40;99.90
36132;DHT22;22185;48.738;9.324;2023-05-10T05:04:14;13.40;99.90
36132;DHT22;22185;48.738;9.324;2023-05-10T05:06:16;13.40;99.90
36132;DHT22;22185;48.738;9.324;2023-05-10T05:08:18;13.40;99.90
36132;DHT22;22185;48.738;9.324;2023-05-10T05:10:19;13.50;99.90
36132;DHT22;22185;48.738;9.324;2023-05-10T05:12:21;13.60;99.90
36132;DHT22;22185;48.738;9.324;2023-05-10T05:14:23;13.60;99.90
36132;DHT22;22185;48.738;9.324;2023-05-10T05:16:29;13.60;99.90
36132;DHT22;22185;48.738;9.324;2023-05-10T05:18:31;13.60;99.90
36132;DHT22;22185;48.738;9.324;2023-05-10T05:20:33;13.60;99.90
36132;DHT22;22185;48.738;9.324;2023-05-10T05:22:38;13.60;99.90
36132;DHT22;22185;48.738;9.324;2023-05-10T05:24:40;13.70;99.90
36132;DHT22;22185;48.738;9.324;2023-05-10T05:26:42;13.70;99.90
36132;DHT22;22185;48.738;9.324;2023-05-10T05:28:43;13.70;99.90
36132;DHT22;22185;48.738;9.324;2023-05-10T05:30:47;13.70;99.90
36132;DHT22;22185;48.738;9.324;2023-05-10T05:32:49;13.70;99.90
36132;DHT22;22185;48.738;9.324;2023-05-10T05:34:51;13.80;99.90
36132;DHT22;22185;48.738;9.324;2023-05-10T05:36:52;13.80;99.90
36132;DHT22;22185;48.738;9.324;2023-05-10T05:38:55;13.80;99.90
36132;DHT22;22185;48.738;9.324;2023-05-10T05:40:57;13.80;99.90
36132;DHT22;22185;48.738;9.324;2023-05-10T05:42:58;13.90;99.90
36132;DHT22;22185;48.738;9.324;2023-05-10T05:45:00;13.70;99.90
36132;DHT22;22185;48.738;9.324;2023-05-10T05:47:02;13.80;99.90
36132;DHT22;22185;48.738;9.324;2023-05-10T05:49:04;13.90;99.90
36132;DHT22;22185;48.738;9.324;2023-05-10T05:51:05;14.00;99.90
36132;DHT22;22185;48.738;9.324;2023-05-10T05:53:08;14.20;99.90
36132;DHT22;22185;48.738;9.324;2023-05-10T05:55:10;14.20;99.90
36132;DHT22;22185;48.738;9.324;2023-05-10T05:57:11;14.20;99.90
36132;DHT22;22185;48.738;9.324;2023-05-10T05:59:13;14.20;99.90
36132;DHT22;22185;48.738;9.324;2023-05-10T06:01:15;14.30;99.90
36132;DHT22;22185;48.738;9.324;2023-05-10T06:03:17;14.30;99.90
36132;DHT22;22185;48.738;9.324;2023-05-10T06:05:19;14.30;99.90
36132;DHT22;22185;48.738;9.324;2023-05-10T06:07:22;14.30;99.90
36132;DHT22;22185;48.738;9.324;2023-05-10T06:09:24;14.30;99.90
36132;DHT22;22185;48.738;9.324;2023-05-10T06:11:26;14.30;99.90
36132;DHT22;22185;48.738;9.324;2023-05-10T06:13:27;14.30;99.90
36132;DHT22;22185;48.738;9.324;2023-05-10T06:15:34;14.10;99.90
36132;DHT22;22185;48.738;9.324;2023-05-10T06:17:36;14.10;99.90
36132;DHT22;22185;48.738;9.324;2023-05-10T06:19:37;14.20;99.90
36132;DHT22;22185;48.738;9.324;2023-05-10T06:21:39;14.40;99.90
36132;DHT22;22185;48.738;9.324;2023-05-10T06:23:41;14.30;99.90
36132;DHT22;22185;48.738;9.324;2023-05-10T06:25:43;14.20;99.90
36132;DHT22;22185;48.738;9.324;2023-05-10T06:27:45;14.30;99.90
36132;DHT22;22185;48.738;9.324;2023-05-10T06:29:52;14.30;99.90
36132;DHT22;22185;48.738;9.324;2023-05-10T06:32:09;14.40;99.90
36132;DHT22;22185;48.738;9.324;2023-05-10T06:34:11;14.40;99.90
36132;DHT22;22185;48.738;9.324;2023-05-10T06:36:14;14.40;99.90
36132;DHT22;22185;48.738;9.324;2023-05-10T06:38:22;14.50;99.90
36132;DHT22;22185;48.738;9.324;2023-05-10T06:40:29;14.50;99.90
36132;DHT22;22185;48.738;9.324;2023-05-10T06:42:30;14.30;99.90
36132;DHT22;22185;48.738;9.324;2023-05-10T06:44:32;14.30;99.90
36132;DHT22;22185;48.738;9.324;2023-05-10T06:46:34;14.40;99.90
36132;DHT22;22185;48.738;9.324;2023-05-10T06:48:35;14.40;99.90
36132;DHT22;22185;48.738;9.324;2023-05-10T06:50:37;14.40;99.90
36132;DHT22;22185;48.738;9.324;2023-05-10T06:52:39;14.40;99.90
36132;DHT22;22185;48.738;9.324;2023-05-10T06:54:41;14.40;99.90
36132;DHT22;22185;48.738;9.324;2023-05-10T06:56:42;14.30;99.90
36132;DHT22;22185;48.738;9.324;2023-05-10T06:58:44;14.20;99.90
36132;DHT22;22185;48.738;9.324;2023-05-10T07:00:47;14.20;99.90
36132;DHT22;22185;48.738;9.324;2023-05-10T07:02:48;14.30;99.90
36132;DHT22;22185;48.738;9.324;2023-05-10T07:04:50;14.30;99.90
36132;DHT22;22185;48.738;9.324;2023-05-10T07:06:53;14.30;99.90
36132;DHT22;22185;48.738;9.324;2023-05-10T07:08:55;14.30;99.90
36132;DHT22;22185;48.738;9.324;2023-05-10T07:11:15;14.20;99.90
36132;DHT22;22185;48.738;9.324;2023-05-10T07:13:16;14.10;99.90
36132;DHT22;22185;48.738;9.324;2023-05-10T07:15:18;14.20;99.90
36132;DHT22;22185;48.738;9.324;2023-05-10T07:17:20;14.30;99.90
36132;DHT22;22185;48.738;9.324;2023-05-10T07:19:22;14.40;99.90
36132;DHT22;22185;48.738;9.324;2023-05-10T07:21:24;14.40;99.90
36132;DHT22;22185;48.738;9.324;2023-05-10T07:23:25;14.30;99.90
36132;DHT22;22185;48.738;9.324;2023-05-10T07:25:27;14.20;99.90
36132;DHT22;22185;48.738;9.324;2023-05-10T07:27:29;14.30;99.90
36132;DHT22;22185;48.738;9.324;2023-05-10T07:29:32;14.50;99.90
36132;DHT22;22185;48.738;9.324;2023-05-10T07:31:33;14.60;99.90
36132;DHT22;22185;48.738;9.324;2023-05-10T07:33:35;14.80;99.90
36132;DHT22;22185;48.738;9.324;2023-05-10T07:35:37;14.90;99.90
36132;DHT22;22185;48.738;9.324;2023-05-10T07:37:39;15.00;99.90
36132;DHT22;22185;48.738;9.324;2023-05-10T07:39:41;15.00;99.90
36132;DHT22;22185;48.738;9.324;2023-05-10T07:41:43;15.20;99.90
36132;DHT22;22185;48.738;9.324;2023-05-10T07:43:44;15.20;99.90
36132;DHT22;22185;48.738;9.324;2023-05-10T07:45:46;15.20;99.90
36132;DHT22;22185;48.738;9.324;2023-05-10T07:47:48;15.20;99.90
36132;DHT22;22185;48.738;9.324;2023-05-10T07:49:50;15.30;99.90
36132;DHT22;22185;48.738;9.324;2023-05-10T07:51:51;15.10;99.90
36132;DHT22;22185;48.738;9.324;2023-05-10T07:53:53;15.00;99.90
36132;DHT22;22185;48.738;9.324;2023-05-10T07:55:57;15.10;99.90
36132;DHT22;22185;48.738;9.324;2023-05-10T07:57:59;15.10;99.90
36132;DHT22;22185;48.738;9.324;2023-05-10T08:00:02;15.20;99.90
36132;DHT22;22185;48.738;9.324;2023-05-10T08:02:04;15.30;99.90
36132;DHT22;22185;48.738;9.324;2023-05-10T08:04:06;15.20;99.90
36132;DHT22;22185;48.738;9.324;2023-05-10T08:06:12;15.00;99.90
36132;DHT22;22185;48.738;9.324;2023-05-10T08:08:14;14.90;99.90
36132;DHT22;22185;48.738;9.324;2023-05-10T08:10:16;15.00;99.90
36132;DHT22;22185;48.738;9.324;2023-05-10T08:12:18;15.10;99.90
36132;DHT22;22185;48.738;9.324;2023-05-10T08:14:20;15.10;99.90
36132;DHT22;22185;48.738;9.324;2023-05-10T08:16:21;15.00;99.90
36132;DHT22;22185;48.738;9.324;2023-05-10T08:18:23;15.10;99.90
36132;DHT22;22185;48.738;9.324;2023-05-10T08:20:25;15.20;99.90
36132;DHT22;22185;48.738;9.324;2023-05-10T08:22:27;15.20;99.90
36132;DHT22;22185;48.738;9.324;2023-05-10T08:24:29;15.10;99.90
36132;DHT22;22185;48.738;9.324;2023-05-10T08:26:30;15.20;99.90
36132;DHT22;22185;48.738;9.324;2023-05-10T08:28:32;15.20;99.90
36132;DHT22;22185;48.738;9.324;2023-05-10T08:30:34;15.20;99.90
36132;DHT22;22185;48.738;9.324;2023-05-10T08:32:35;15.30;99.90
36132;DHT22;22185;48.738;9.324;2023-05-10T08:34:39;15.10;99.90
36132;DHT22;22185;48.738;9.324;2023-05-10T08:36:41;15.10;99.90
36132;DHT22;22185;48.738;9.324;2023-05-10T08:38:42;15.20;99.90
36132;DHT22;22185;48.738;9.324;2023-05-10T08:40:44;15.20;99.90
36132;DHT22;22185;48.738;9.324;2023-05-10T08:43:04;15.20;99.90
36132;DHT22;22185;48.738;9.324;2023-05-10T08:45:07;15.20;99.90
36132;DHT22;22185;48.738;9.324;2023-05-10T08:47:09;15.30;99.90
36132;DHT22;22185;48.738;9.324;2023-05-10T08:49:13;15.40;99.90
36132;DHT22;22185;48.738;9.324;2023-05-10T08:51:17;15.40;99.90
36132;DHT22;22185;48.738;9.324;2023-05-10T08:53:19;15.40;99.90
36132;DHT22;22185;48.738;9.324;2023-05-10T08:55:21;15.50;99.90
36132;DHT22;22185;48.738;9.324;2023-05-10T08:57:25;15.50;99.90
36132;DHT22;22185;48.738;9.324;2023-05-10T08:59:27;15.60;99.90
36132;DHT22;22185;48.738;9.324;2023-05-10T09:01:29;15.50;99.90
36132;DHT22;22185;48.738;9.324;2023-05-10T09:03:33;15.60;99.90
36132;DHT22;22185;48.738;9.324;2023-05-10T09:05:35;15.60;99.90
36132;DHT22;22185;48.738;9.324;2023-05-10T09:07:37;15.70;99.90
36132;DHT22;22185;48.738;9.324;2023-05-10T09:09:39;15.50;99.90
36132;DHT22;22185;48.738;9.324;2023-05-10T09:11:41;15.50;99.90
36132;DHT22;22185;48.738;9.324;2023-05-10T09:13:42;15.60;99.90
36132;DHT22;22185;48.738;9.324;2023-05-10T09:15:45;15.60;99.90
36132;DHT22;22185;48.738;9.324;2023-05-10T09:17:47;15.60;99.90
36132;DHT22;22185;48.738;9.324;2023-05-10T09:19:56;15.70;99.90
36132;DHT22;22185;48.738;9.324;2023-05-10T09:21:58;15.70;99.90
36132;DHT22;22185;48.738;9.324;2023-05-10T09:24:05;15.50;99.90
36132;DHT22;22185;48.738;9.324;2023-05-10T09:26:07;15.40;99.90
36132;DHT22;22185;48.738;9.324;2023-05-10T09:28:09;15.50;99.90
36132;DHT22;22185;48.738;9.324;2023-05-10T09:30:15;15.50;99.90
36132;DHT22;22185;48.738;9.324;2023-05-10T09:32:17;15.40;99.90
36132;DHT22;22185;48.738;9.324;2023-05-10T09:34:19;15.40;99.90
36132;DHT22;22185;48.738;9.324;2023-05-10T09:36:21;15.40;99.90
36132;DHT22;22185;48.738;9.324;2023-05-10T09:38:23;15.50;99.90
36132;DHT22;22185;48.738;9.324;2023-05-10T09:40:26;15.50;99.90
36132;DHT22;22185;48.738;9.324;2023-05-10T09:42:28;15.50;99.90
36132;DHT22;22185;48.738;9.324;2023-05-10T09:44:30;15.30;99.90
36132;DHT22;22185;48.738;9.324;2023-05-10T09:46:34;15.30;99.90
36132;DHT22;22185;48.738;9.324;2023-05-10T09:48:43;15.20;99.90
36132;DHT22;22185;48.738;9.324;2023-05-10T09:50:45;15.00;99.90
36132;DHT22;22185;48.738;9.324;2023-05-10T09:52:58;14.90;99.90
36132;DHT22;22185;48.738;9.324;2023-05-10T09:55:00;14.80;99.90
36132;DHT22;22185;48.738;9.324;2023-05-10T09:57:02;14.80;99.90
36132;DHT22;22185;48.738;9.324;2023-05-10T09:59:05;14.90;99.90
36132;DHT22;22185;48.738;9.324;2023-05-10T10:01:10;15.10;99.90
36132;DHT22;22185;48.738;9.324;2023-05-10T10:03:13;15.00;99.90
36132;DHT22;22185;48.738;9.324;2023-05-10T10:05:16;15.20;99.90
36132;DHT22;22185;48.738;9.324;2023-05-10T10:07:21;15.60;99.90
36132;DHT22;22185;48.738;9.324;2023-05-10T10:09:23;15.80;99.90
36132;DHT22;22185;48.738;9.324;2023-05-10T10:11:25;16.10;99.90
36132;DHT22;22185;48.738;9.324;2023-05-10T10:13:27;16.00;99.90
36132;DHT22;22185;48.738;9.324;2023-05-10T10:15:28;16.30;99.90
36132;DHT22;22185;48.738;9.324;2023-05-10T10:17:30;16.50;99.90
36132;DHT22;22185;48.738;9.324;2023-05-10T10:19:33;16.70;99.90
36132;DHT22;22185;48.738;9.324;2023-05-10T10:21:36;16.80;99.90
36132;DHT22;22185;48.738;9.324;2023-05-10T10:23:38;16.90;99.90
36132;DHT22;22185;48.738;9.324;2023-05-10T10:25:39;16.80;99.90
36132;DHT22;22185;48.738;9.324;2023-05-10T10:27:43;16.70;99.90
36132;DHT22;22185;48.738;9.324;2023-05-10T10:32:03;17.10;99.90
36132;DHT22;22185;48.738;9.324;2023-05-10T10:36:09;18.30;99.90
36132;DHT22;22185;48.738;9.324;2023-05-10T10:38:12;19.00;99.90
36132;DHT22;22185;48.738;9.324;2023-05-10T10:40:27;18.10;99.90
36132;DHT22;22185;48.738;9.324;2023-05-10T10:42:43;17.40;99.90
36132;DHT22;22185;48.738;9.324;2023-05-10T10:44:45;17.20;99.90
36132;DHT22;22185;48.738;9.324;2023-05-10T10:49:10;16.70;99.90
36132;DHT22;22185;48.738;9.324;2023-05-10T10:51:12;16.40;99.90
36132;DHT22;22185;48.738;9.324;2023-05-10T10:53:14;16.60;99.90
36132;DHT22;22185;48.738;9.324;2023-05-10T10:55:17;16.80;99.90
36132;DHT22;22185;48.738;9.324;2023-05-10T10:57:20;17.00;99.90
36132;DHT22;22185;48.738;9.324;2023-05-10T10:59:32;16.70;99.90
36132;DHT22;22185;48.738;9.324;2023-05-10T11:01:33;16.80;99.90
36132;DHT22;22185;48.738;9.324;2023-05-10T11:03:39;16.80;99.90
36132;DHT22;22185;48.738;9.324;2023-05-10T11:05:41;16.70;99.90
36132;DHT22;22185;48.738;9.324;2023-05-10T11:07:56;16.70;99.90
36132;DHT22;22185;48.738;9.324;2023-05-10T11:10:03;16.80;99.90
36132;DHT22;22185;48.738;9.324;2023-05-10T11:12:08;16.80;99.90
36132;DHT22;22185;48.738;9.324;2023-05-10T11:14:09;16.60;99.90
36132;DHT22;22185;48.738;9.324;2023-05-10T11:16:16;16.40;99.90
36132;DHT22;22185;48.738;9.324;2023-05-10T11:20:20;15.90;99.90
36132;DHT22;22185;48.738;9.324;2023-05-10T11:22:25;15.80;99.90
36132;DHT22;22185;48.738;9.324;2023-05-10T11:24:27;15.60;99.90
36132;DHT22;22185;48.738;9.324;2023-05-10T11:26:30;15.60;99.90
36132;DHT22;22185;48.738;9.324;2023-05-10T11:28:32;15.50;99.90
36132;DHT22;22185;48.738;9.324;2023-05-10T11:30:34;15.40;99.90
36132;DHT22;22185;48.738;9.324;2023-05-10T11:32:40;15.30;99.90
36132;DHT22;22185;48.738;9.324;2023-05-10T11:34:42;15.30;99.90
36132;DHT22;22185;48.738;9.324;2023-05-10T11:36:43;15.20;99.90
36132;DHT22;22185;48.738;9.324;2023-05-10T11:38:45;15.10;99.90
36132;DHT22;22185;48.738;9.324;2023-05-10T11:40:47;15.20;99.90
36132;DHT22;22185;48.738;9.324;2023-05-10T11:42:55;15.20;99.90
36132;DHT22;22185;48.738;9.324;2023-05-10T11:44:57;15.20;99.90
36132;DHT22;22185;48.738;9.324;2023-05-10T11:46:59;15.20;99.90
36132;DHT22;22185;48.738;9.324;2023-05-10T11:49:01;15.30;99.90
36132;DHT22;22185;48.738;9.324;2023-05-10T11:51:06;15.40;99.90
36132;DHT22;22185;48.738;9.324;2023-05-10T11:53:08;15.30;99.90
36132;DHT22;22185;48.738;9.324;2023-05-10T11:55:10;15.30;99.90
36132;DHT22;22185;48.738;9.324;2023-05-10T11:57:13;15.30;99.90
36132;DHT22;22185;48.738;9.324;2023-05-10T11:59:15;15.30;99.90
36132;DHT22;22185;48.738;9.324;2023-05-10T12:01:16;15.30;99.90
36132;DHT22;22185;48.738;9.324;2023-05-10T12:03:18;15.30;99.90
36132;DHT22;22185;48.738;9.324;2023-05-10T12:05:20;15.30;99.90
36132;DHT22;22185;48.738;9.324;2023-05-10T12:07:22;15.30;99.90
36132;DHT22;22185;48.738;9.324;2023-05-10T12:09:24;15.30;99.90
36132;DHT22;22185;48.738;9.324;2023-05-10T12:11:43;15.20;99.90
36132;DHT22;22185;48.738;9.324;2023-05-10T12:13:45;15.10;99.90
36132;DHT22;22185;48.738;9.324;2023-05-10T12:15:50;14.90;99.90
36132;DHT22;22185;48.738;9.324;2023-05-10T12:17:52;14.70;99.90
36132;DHT22;22185;48.738;9.324;2023-05-10T12:19:53;14.50;99.90
36132;DHT22;22185;48.738;9.324;2023-05-10T12:21:55;14.40;99.90
36132;DHT22;22185;48.738;9.324;2023-05-10T12:24:01;14.40;99.90
36132;DHT22;22185;48.738;9.324;2023-05-10T12:26:03;14.40;99.90
36132;DHT22;22185;48.738;9.324;2023-05-10T12:28:08;14.50;99.90
36132;DHT22;22185;48.738;9.324;2023-05-10T12:30:11;14.60;99.90
36132;DHT22;22185;48.738;9.324;2023-05-10T12:32:13;14.60;99.90
36132;DHT22;22185;48.738;9.324;2023-05-10T12:34:22;14.60;99.90
36132;DHT22;22185;48.738;9.324;2023-05-10T12:36:24;14.80;99.90
36132;DHT22;22185;48.738;9.324;2023-05-10T12:38:35;15.10;99.90
36132;DHT22;22185;48.738;9.324;2023-05-10T12:40:39;15.50;99.90
36132;DHT22;22185;48.738;9.324;2023-05-10T12:42:41;15.50;99.90
36132;DHT22;22185;48.738;9.324;2023-05-10T12:44:43;15.50;99.90
36132;DHT22;22185;48.738;9.324;2023-05-10T12:46:44;15.60;99.90
36132;DHT22;22185;48.738;9.324;2023-05-10T12:48:46;15.70;99.90
36132;DHT22;22185;48.738;9.324;2023-05-10T12:51:01;15.80;99.90
36132;DHT22;22185;48.738;9.324;2023-05-10T12:53:02;15.80;99.90
36132;DHT22;22185;48.738;9.324;2023-05-10T12:55:04;15.90;99.90
36132;DHT22;22185;48.738;9.324;2023-05-10T12:57:06;15.80;99.90
36132;DHT22;22185;48.738;9.324;2023-05-10T12:59:08;15.60;99.90
36132;DHT22;22185;48.738;9.324;2023-05-10T13:01:09;15.40;99.90
36132;DHT22;22185;48.738;9.324;2023-05-10T13:03:11;15.40;99.90
36132;DHT22;22185;48.738;9.324;2023-05-10T13:05:13;15.40;99.90
36132;DHT22;22185;48.738;9.324;2023-05-10T13:07:15;15.30;99.90
36132;DHT22;22185;48.738;9.324;2023-05-10T13:09:17;15.20;99.90
36132;DHT22;22185;48.738;9.324;2023-05-10T13:11:19;15.10;99.90
36132;DHT22;22185;48.738;9.324;2023-05-10T13:13:22;15.00;99.90
36132;DHT22;22185;48.738;9.324;2023-05-10T13:15:25;14.90;99.90
36132;DHT22;22185;48.738;9.324;2023-05-10T13:17:26;14.80;99.90